EGPE/INV METAR and TAF weather

Enter ICAO airport designator
Station Type Date Time Source
EGPE METAR 2021/04/13 21:50 UTC NOAA

EGPE 132150Z AUTO 00000KT 9999 NCD M00/M02 Q1033


Station Type Date Time Source
EGPE Decoded METAR 2021/04/13 21:50 UTC NOAA

Inverness / Dalcross, United Kingdom (EGPE) 57-32N 004-03W 0M
Apr 13, 2021 - 05:50 PM EDT / 2021.04.13 2150 UTC
Wind: Calm:0
Visibility: greater than 7 mile(s):0
Temperature: 32 F (0 C)
Dew Point: 28 F (-2 C)
Relative Humidity: 86%
Pressure (altimeter): 30.50 in. Hg (1033 hPa)
ob: EGPE 132150Z AUTO 00000KT 9999 NCD M00/M02 Q1033
cycle: 22

Station Type Date Time Source
EGPE TAF UTC NOAA

Error!

Example: see airport list